JIA1463 KORD-KCMH
Flight info
| Callsign | JIA1463 |
|---|---|
| Flight time | 0h 50m |
| Altitude | 31000 |
| Route | MOBLE ADIME SEWTO FWA BRYEN DUBLN1 |
| Aircraft | CRJ7/M-SDFGIRWY/S |
Departure
| Time | 2026-05-06 03:00 |
|---|---|
| Airport | Chicago O'Hare International Airport (KORD) |
Arrival
| Time | 2026-05-06 03:50 |
|---|---|
| Airport | John Glenn Columbus International Airport (KCMH) |
| Time | Latitude | Longitude | Altitude | Speed | Heading |
|---|---|---|---|---|---|
| 2026-05-06 02:44 | 41.97655 | -87.89770 | 669 ft | 0 kts | 14° |
| 2026-05-06 02:50 | 41.97642 | -87.89774 | 669 ft | 3 kts | 22° |
| 2026-05-06 02:50 | 41.97627 | -87.89790 | 669 ft | 3 kts | 57° |
| 2026-05-06 02:50 | 41.97622 | -87.89815 | 669 ft | 3 kts | 91° |
| 2026-05-06 02:51 | 41.97624 | -87.89830 | 669 ft | 0 kts | 112° |
| 2026-05-06 02:54 | 41.97619 | -87.89815 | 669 ft | 6 kts | 115° |
| 2026-05-06 02:54 | 41.97592 | -87.89729 | 669 ft | 12 kts | 109° |
| 2026-05-06 02:55 | 41.97565 | -87.89625 | 669 ft | 12 kts | 109° |
| 2026-05-06 02:55 | 41.97527 | -87.89528 | 669 ft | 12 kts | 145° |
| 2026-05-06 02:55 | 41.97471 | -87.89450 | 669 ft | 11 kts | 128° |
| 2026-05-06 02:55 | 41.97400 | -87.89431 | 669 ft | 11 kts | 180° |
| 2026-05-06 02:56 | 41.97321 | -87.89430 | 669 ft | 12 kts | 179° |
| 2026-05-06 02:56 | 41.97240 | -87.89433 | 669 ft | 12 kts | 182° |
| 2026-05-06 02:56 | 41.97155 | -87.89437 | 669 ft | 12 kts | 182° |
| 2026-05-06 02:56 | 41.97066 | -87.89436 | 668 ft | 13 kts | 162° |
| 2026-05-06 02:57 | 41.97045 | -87.89335 | 668 ft | 12 kts | 91° |
| 2026-05-06 02:57 | 41.97044 | -87.89199 | 667 ft | 17 kts | 89° |
| 2026-05-06 02:57 | 41.97044 | -87.89024 | 667 ft | 21 kts | 89° |
| 2026-05-06 02:57 | 41.97048 | -87.88810 | 667 ft | 25 kts | 90° |
| 2026-05-06 02:58 | 41.97044 | -87.88564 | 667 ft | 28 kts | 89° |
| 2026-05-06 02:58 | 41.97045 | -87.88290 | 667 ft | 31 kts | 87° |
| 2026-05-06 02:58 | 41.97046 | -87.88114 | 668 ft | 0 kts | 91° |
| 2026-05-06 02:59 | 41.97046 | -87.88113 | 668 ft | 1 kts | 91° |
| 2026-05-06 02:59 | 41.97023 | -87.88047 | 668 ft | 12 kts | 147° |
| 2026-05-06 02:59 | 41.96917 | -87.88067 | 668 ft | 25 kts | 221° |
| 2026-05-06 03:00 | 41.96597 | -87.88448 | 666 ft | 105 kts | 221° |
| 2026-05-06 03:00 | 41.95837 | -87.89346 | 744 ft | 176 kts | 222° |
| 2026-05-06 03:00 | 41.94728 | -87.90068 | 1478 ft | 192 kts | 182° |
| 2026-05-06 03:00 | 41.93565 | -87.89342 | 2406 ft | 190 kts | 128° |
| 2026-05-06 03:01 | 41.93067 | -87.87804 | 3148 ft | 175 kts | 85° |
| 2026-05-06 03:01 | 41.93380 | -87.86333 | 3822 ft | 163 kts | 56° |
| 2026-05-06 03:01 | 41.93977 | -87.84919 | 4546 ft | 183 kts | 56° |
| 2026-05-06 03:01 | 41.94646 | -87.83352 | 5264 ft | 203 kts | 56° |
| 2026-05-06 03:02 | 41.95336 | -87.81581 | 6041 ft | 225 kts | 62° |
| 2026-05-06 03:02 | 41.95928 | -87.79510 | 6770 ft | 250 kts | 71° |
| 2026-05-06 03:02 | 41.96344 | -87.77121 | 7474 ft | 275 kts | 79° |
| 2026-05-06 03:02 | 41.96567 | -87.74454 | 8175 ft | 300 kts | 86° |
| 2026-05-06 03:03 | 41.96636 | -87.71538 | 8926 ft | 321 kts | 91° |
| 2026-05-06 03:03 | 41.96591 | -87.68467 | 9891 ft | 336 kts | 94° |
| 2026-05-06 03:03 | 41.96473 | -87.65263 | 10757 ft | 350 kts | 95° |
| 2026-05-06 03:03 | 41.96321 | -87.61941 | 11663 ft | 363 kts | 95° |
| 2026-05-06 03:04 | 41.96170 | -87.58501 | 12565 ft | 376 kts | 94° |
| 2026-05-06 03:04 | 41.96030 | -87.54924 | 13505 ft | 389 kts | 94° |
| 2026-05-06 03:04 | 41.95892 | -87.51240 | 14362 ft | 401 kts | 94° |
| 2026-05-06 03:04 | 41.95783 | -87.47443 | 15215 ft | 413 kts | 93° |
| 2026-05-06 03:05 | 41.95695 | -87.43538 | 16091 ft | 423 kts | 94° |
| 2026-05-06 03:05 | 41.95602 | -87.39542 | 16999 ft | 433 kts | 94° |
| 2026-05-06 03:05 | 41.95495 | -87.35460 | 17910 ft | 441 kts | 95° |
| 2026-05-06 03:05 | 41.95361 | -87.31320 | 18756 ft | 447 kts | 95° |
| 2026-05-06 03:06 | 41.95217 | -87.27197 | 19569 ft | 453 kts | 95° |
| 2026-05-06 03:06 | 41.95063 | -87.22869 | 20438 ft | 457 kts | 96° |
| 2026-05-06 03:06 | 41.94916 | -87.18582 | 21314 ft | 460 kts | 96° |
| 2026-05-06 03:06 | 41.94774 | -87.14280 | 22211 ft | 462 kts | 95° |
| 2026-05-06 03:07 | 41.94641 | -87.09965 | 23127 ft | 462 kts | 95° |
| 2026-05-06 03:07 | 41.94516 | -87.05654 | 23965 ft | 461 kts | 96° |
| 2026-05-06 03:07 | 41.94451 | -87.01356 | 24762 ft | 460 kts | 93° |
| 2026-05-06 03:07 | 41.94525 | -86.97133 | 25590 ft | 457 kts | 91° |
| 2026-05-06 03:08 | 41.94653 | -86.92892 | 26382 ft | 455 kts | 91° |
| 2026-05-06 03:08 | 41.94774 | -86.88642 | 27018 ft | 455 kts | 92° |
| 2026-05-06 03:08 | 41.94867 | -86.84346 | 27663 ft | 454 kts | 93° |
| 2026-05-06 03:08 | 41.94949 | -86.80105 | 28322 ft | 453 kts | 93° |
| 2026-05-06 03:09 | 41.95022 | -86.75897 | 28977 ft | 450 kts | 94° |
| 2026-05-06 03:09 | 41.95058 | -86.71714 | 29646 ft | 445 kts | 95° |
| 2026-05-06 03:09 | 41.95065 | -86.67583 | 30258 ft | 441 kts | 95° |
| 2026-05-06 03:09 | 41.95056 | -86.63451 | 30588 ft | 444 kts | 95° |
| 2026-05-06 03:10 | 41.95077 | -86.59272 | 30747 ft | 452 kts | 94° |
| 2026-05-06 03:10 | 41.95209 | -86.50628 | 30880 ft | 474 kts | 92° |
| 2026-05-06 03:10 | 41.95296 | -86.46148 | 30905 ft | 486 kts | 92° |
| 2026-05-06 03:11 | 41.95363 | -86.41551 | 30921 ft | 498 kts | 93° |
| 2026-05-06 03:11 | 41.95417 | -86.36836 | 30924 ft | 511 kts | 92° |
| 2026-05-06 03:11 | 41.95464 | -86.32008 | 30923 ft | 523 kts | 93° |
| 2026-05-06 03:11 | 41.95318 | -86.27098 | 30908 ft | 528 kts | 104° |
| 2026-05-06 03:12 | 41.94375 | -86.22361 | 30913 ft | 526 kts | 116° |
| 2026-05-06 03:12 | 41.92467 | -86.14457 | 30915 ft | 540 kts | 116° |
| 2026-05-06 03:13 | 41.90190 | -86.04868 | 30900 ft | 535 kts | 118° |
| 2026-05-06 03:13 | 41.87526 | -85.95523 | 30893 ft | 536 kts | 118° |
| 2026-05-06 03:14 | 41.84983 | -85.86097 | 30881 ft | 539 kts | 115° |
| 2026-05-06 03:14 | 41.82400 | -85.76675 | 30878 ft | 537 kts | 118° |
| 2026-05-06 03:15 | 41.79600 | -85.67392 | 30873 ft | 534 kts | 122° |
| 2026-05-06 03:15 | 41.77663 | -85.63265 | 30872 ft | 515 kts | 139° |
| 2026-05-06 03:15 | 41.75115 | -85.60056 | 30885 ft | 493 kts | 155° |
| 2026-05-06 03:15 | 41.72179 | -85.57926 | 30891 ft | 473 kts | 167° |
| 2026-05-06 03:16 | 41.69242 | -85.55803 | 30900 ft | 487 kts | 158° |
| 2026-05-06 03:16 | 41.66284 | -85.53765 | 30897 ft | 473 kts | 167° |
| 2026-05-06 03:16 | 41.63312 | -85.51586 | 30890 ft | 486 kts | 158° |
| 2026-05-06 03:16 | 41.60338 | -85.49625 | 30890 ft | 471 kts | 168° |
| 2026-05-06 03:17 | 41.57368 | -85.47622 | 30890 ft | 482 kts | 161° |
| 2026-05-06 03:17 | 41.54355 | -85.45833 | 30891 ft | 470 kts | 170° |
| 2026-05-06 03:17 | 41.51284 | -85.44399 | 30886 ft | 468 kts | 172° |
| 2026-05-06 03:18 | 41.45082 | -85.41659 | 30876 ft | 470 kts | 172° |
| 2026-05-06 03:18 | 41.38847 | -85.38942 | 30874 ft | 473 kts | 172° |
| 2026-05-06 03:19 | 41.32586 | -85.36217 | 30877 ft | 475 kts | 172° |
| 2026-05-06 03:19 | 41.26293 | -85.33499 | 30895 ft | 476 kts | 173° |
| 2026-05-06 03:20 | 41.16803 | -85.29409 | 30902 ft | 479 kts | 172° |
| 2026-05-06 03:20 | 41.10430 | -85.26556 | 30903 ft | 486 kts | 168° |
| 2026-05-06 03:21 | 41.04236 | -85.22847 | 30889 ft | 504 kts | 154° |
| 2026-05-06 03:21 | 41.01550 | -85.19651 | 30892 ft | 524 kts | 137° |
| 2026-05-06 03:21 | 40.99476 | -85.15613 | 30691 ft | 533 kts | 126° |
| 2026-05-06 03:22 | 40.97518 | -85.11598 | 30101 ft | 506 kts | 133° |
| 2026-05-06 03:22 | 40.95434 | -85.08004 | 29604 ft | 481 kts | 136° |
| 2026-05-06 03:22 | 40.93372 | -85.04628 | 29137 ft | 465 kts | 131° |
| 2026-05-06 03:22 | 40.91884 | -85.00859 | 28692 ft | 460 kts | 117° |
| 2026-05-06 03:23 | 40.90826 | -84.96930 | 28254 ft | 448 kts | 114° |
| 2026-05-06 03:23 | 40.89864 | -84.93068 | 27809 ft | 436 kts | 114° |
| 2026-05-06 03:23 | 40.88926 | -84.89324 | 27375 ft | 424 kts | 115° |
| 2026-05-06 03:23 | 40.87903 | -84.85755 | 26953 ft | 411 kts | 118° |
| 2026-05-06 03:24 | 40.86818 | -84.82302 | 26603 ft | 405 kts | 120° |
| 2026-05-06 03:24 | 40.85657 | -84.78810 | 26310 ft | 426 kts | 121° |
| 2026-05-06 03:24 | 40.84437 | -84.75148 | 26028 ft | 444 kts | 120° |
| 2026-05-06 03:24 | 40.83213 | -84.71309 | 25765 ft | 462 kts | 118° |
| 2026-05-06 03:25 | 40.82004 | -84.67366 | 25503 ft | 465 kts | 117° |
| 2026-05-06 03:25 | 40.80808 | -84.63386 | 25230 ft | 469 kts | 117° |
| 2026-05-06 03:25 | 40.79591 | -84.59370 | 24959 ft | 473 kts | 117° |
| 2026-05-06 03:25 | 40.78362 | -84.55328 | 24683 ft | 476 kts | 117° |
| 2026-05-06 03:26 | 40.77124 | -84.51264 | 24409 ft | 479 kts | 117° |
| 2026-05-06 03:26 | 40.75874 | -84.47174 | 24151 ft | 482 kts | 117° |
| 2026-05-06 03:26 | 40.74630 | -84.43147 | 23921 ft | 467 kts | 118° |
| 2026-05-06 03:26 | 40.73384 | -84.39244 | 23683 ft | 455 kts | 119° |
| 2026-05-06 03:27 | 40.72155 | -84.35450 | 23428 ft | 446 kts | 119° |
| 2026-05-06 03:27 | 40.70945 | -84.31727 | 23141 ft | 438 kts | 119° |
| 2026-05-06 03:27 | 40.69775 | -84.28068 | 22862 ft | 431 kts | 118° |
| 2026-05-06 03:27 | 40.68653 | -84.24429 | 22583 ft | 425 kts | 118° |
| 2026-05-06 03:28 | 40.67531 | -84.20796 | 22310 ft | 420 kts | 118° |
| 2026-05-06 03:28 | 40.66430 | -84.17265 | 22040 ft | 415 kts | 118° |
| 2026-05-06 03:28 | 40.65336 | -84.13772 | 21770 ft | 411 kts | 118° |
| 2026-05-06 03:28 | 40.64263 | -84.10354 | 21514 ft | 407 kts | 118° |
| 2026-05-06 03:29 | 40.63183 | -84.06924 | 21252 ft | 404 kts | 118° |
| 2026-05-06 03:29 | 40.62097 | -84.03480 | 20992 ft | 400 kts | 118° |
| 2026-05-06 03:29 | 40.61032 | -84.00113 | 20742 ft | 398 kts | 118° |
| 2026-05-06 03:29 | 40.59971 | -83.96765 | 20488 ft | 395 kts | 118° |
| 2026-05-06 03:30 | 40.58914 | -83.93439 | 20241 ft | 393 kts | 118° |
| 2026-05-06 03:30 | 40.57864 | -83.90140 | 20047 ft | 389 kts | 118° |
| 2026-05-06 03:30 | 40.56827 | -83.86883 | 19956 ft | 382 kts | 118° |
| 2026-05-06 03:30 | 40.55813 | -83.83688 | 19894 ft | 374 kts | 118° |
| 2026-05-06 03:31 | 40.54824 | -83.80558 | 19877 ft | 367 kts | 118° |
| 2026-05-06 03:31 | 40.53862 | -83.77496 | 19863 ft | 359 kts | 118° |
| 2026-05-06 03:31 | 40.52912 | -83.74500 | 19854 ft | 351 kts | 119° |
| 2026-05-06 03:31 | 40.51956 | -83.71595 | 19852 ft | 343 kts | 120° |
| 2026-05-06 03:32 | 40.51011 | -83.68758 | 19849 ft | 335 kts | 120° |
| 2026-05-06 03:32 | 40.50088 | -83.65987 | 19842 ft | 327 kts | 120° |
| 2026-05-06 03:32 | 40.49193 | -83.63272 | 19851 ft | 320 kts | 120° |
| 2026-05-06 03:32 | 40.48325 | -83.60580 | 19618 ft | 327 kts | 119° |
| 2026-05-06 03:33 | 40.47394 | -83.57729 | 19181 ft | 352 kts | 118° |
| 2026-05-06 03:33 | 40.46406 | -83.54694 | 18707 ft | 367 kts | 118° |
| 2026-05-06 03:33 | 40.45417 | -83.51572 | 18235 ft | 375 kts | 116° |
| 2026-05-06 03:33 | 40.44415 | -83.48371 | 17686 ft | 380 kts | 121° |
| 2026-05-06 03:34 | 40.43081 | -83.45381 | 17139 ft | 381 kts | 130° |
| 2026-05-06 03:34 | 40.41516 | -83.42547 | 16593 ft | 385 kts | 134° |
| 2026-05-06 03:34 | 40.39866 | -83.39771 | 16057 ft | 385 kts | 135° |
| 2026-05-06 03:34 | 40.38239 | -83.37036 | 15516 ft | 377 kts | 134° |
| 2026-05-06 03:35 | 40.36656 | -83.34326 | 14978 ft | 371 kts | 134° |
| 2026-05-06 03:35 | 40.35125 | -83.31637 | 14444 ft | 366 kts | 134° |
| 2026-05-06 03:35 | 40.33633 | -83.28957 | 13919 ft | 361 kts | 133° |
| 2026-05-06 03:35 | 40.32177 | -83.26308 | 13361 ft | 356 kts | 133° |
| 2026-05-06 03:36 | 40.30588 | -83.23919 | 12789 ft | 341 kts | 144° |
| 2026-05-06 03:36 | 40.28844 | -83.21877 | 12223 ft | 332 kts | 149° |
| 2026-05-06 03:36 | 40.27050 | -83.20025 | 11658 ft | 325 kts | 150° |
| 2026-05-06 03:36 | 40.25256 | -83.18253 | 11118 ft | 320 kts | 151° |
| 2026-05-06 03:37 | 40.23495 | -83.16523 | 10652 ft | 313 kts | 151° |
| 2026-05-06 03:37 | 40.21783 | -83.14827 | 10220 ft | 304 kts | 150° |
| 2026-05-06 03:37 | 40.20149 | -83.13105 | 9795 ft | 303 kts | 141° |
| 2026-05-06 03:37 | 40.18856 | -83.10931 | 9333 ft | 303 kts | 130° |
| 2026-05-06 03:38 | 40.17777 | -83.08606 | 9052 ft | 293 kts | 125° |
| 2026-05-06 03:38 | 40.16877 | -83.06304 | 8970 ft | 276 kts | 123° |
| 2026-05-06 03:38 | 40.15952 | -83.04174 | 8598 ft | 264 kts | 131° |
| 2026-05-06 03:38 | 40.14916 | -83.02231 | 8249 ft | 257 kts | 134° |
| 2026-05-06 03:39 | 40.13873 | -83.00365 | 7895 ft | 251 kts | 134° |
| 2026-05-06 03:39 | 40.12850 | -82.98547 | 7541 ft | 246 kts | 134° |
| 2026-05-06 03:39 | 40.11833 | -82.96735 | 7206 ft | 242 kts | 134° |
| 2026-05-06 03:39 | 40.10874 | -82.95006 | 7026 ft | 236 kts | 134° |
| 2026-05-06 03:40 | 40.09900 | -82.93269 | 6930 ft | 234 kts | 135° |
| 2026-05-06 03:40 | 40.08987 | -82.91444 | 6660 ft | 250 kts | 116° |
| 2026-05-06 03:40 | 40.08639 | -82.89166 | 6411 ft | 261 kts | 101° |
| 2026-05-06 03:40 | 40.08560 | -82.86768 | 6149 ft | 266 kts | 94° |
| 2026-05-06 03:41 | 40.08586 | -82.84429 | 5967 ft | 255 kts | 93° |
| 2026-05-06 03:41 | 40.08672 | -82.82153 | 5886 ft | 252 kts | 90° |
| 2026-05-06 03:41 | 40.08808 | -82.79791 | 5862 ft | 261 kts | 89° |
| 2026-05-06 03:41 | 40.08963 | -82.77404 | 5824 ft | 266 kts | 89° |
| 2026-05-06 03:42 | 40.09115 | -82.74996 | 5400 ft | 265 kts | 89° |
| 2026-05-06 03:42 | 40.09283 | -82.72628 | 4998 ft | 259 kts | 89° |
| 2026-05-06 03:42 | 40.09464 | -82.70306 | 4611 ft | 255 kts | 88° |
| 2026-05-06 03:42 | 40.09643 | -82.68020 | 4193 ft | 251 kts | 89° |
| 2026-05-06 03:43 | 40.09840 | -82.65762 | 3765 ft | 249 kts | 87° |
| 2026-05-06 03:43 | 40.09656 | -82.63547 | 3440 ft | 243 kts | 121° |
| 2026-05-06 03:43 | 40.08624 | -82.62047 | 3301 ft | 207 kts | 157° |
| 2026-05-06 03:43 | 40.07405 | -82.61710 | 3230 ft | 163 kts | 201° |
| 2026-05-06 03:44 | 40.06587 | -82.62483 | 3186 ft | 135 kts | 224° |
| 2026-05-06 03:44 | 40.05881 | -82.63308 | 3144 ft | 144 kts | 223° |
| 2026-05-06 03:44 | 40.05105 | -82.64162 | 3148 ft | 151 kts | 221° |
| 2026-05-06 03:44 | 40.04527 | -82.64763 | 3183 ft | 164 kts | 219° |
| 2026-05-06 03:45 | 40.03668 | -82.65576 | 3183 ft | 145 kts | 217° |
| 2026-05-06 03:45 | 40.02730 | -82.66362 | 3201 ft | 179 kts | 214° |
| 2026-05-06 03:45 | 40.01630 | -82.67324 | 3244 ft | 194 kts | 224° |
| 2026-05-06 03:45 | 40.00690 | -82.68411 | 3234 ft | 162 kts | 219° |
| 2026-05-06 03:46 | 39.99862 | -82.69197 | 3178 ft | 135 kts | 218° |
| 2026-05-06 03:46 | 39.99148 | -82.69818 | 3090 ft | 116 kts | 217° |
| 2026-05-06 03:46 | 39.98459 | -82.70421 | 3078 ft | 129 kts | 217° |
| 2026-05-06 03:46 | 39.97938 | -82.71372 | 3100 ft | 136 kts | 264° |
| 2026-05-06 03:47 | 39.98169 | -82.72669 | 3141 ft | 149 kts | 275° |
| 2026-05-06 03:47 | 39.98355 | -82.73986 | 2889 ft | 140 kts | 270° |
| 2026-05-06 03:47 | 39.98463 | -82.75156 | 2673 ft | 124 kts | 268° |
| 2026-05-06 03:47 | 39.98537 | -82.76307 | 2495 ft | 139 kts | 268° |
| 2026-05-06 03:48 | 39.98602 | -82.77608 | 2338 ft | 139 kts | 269° |
| 2026-05-06 03:48 | 39.98678 | -82.78795 | 2112 ft | 130 kts | 270° |
| 2026-05-06 03:48 | 39.98745 | -82.80009 | 1949 ft | 137 kts | 270° |
| 2026-05-06 03:48 | 39.98818 | -82.81249 | 1771 ft | 137 kts | 271° |
| 2026-05-06 03:49 | 39.98891 | -82.82492 | 1598 ft | 137 kts | 271° |
| 2026-05-06 03:49 | 39.98957 | -82.83685 | 1399 ft | 138 kts | 273° |
| 2026-05-06 03:49 | 39.99019 | -82.84917 | 1214 ft | 140 kts | 274° |
| 2026-05-06 03:49 | 39.99077 | -82.85810 | 1079 ft | 140 kts | 273° |
| 2026-05-06 03:50 | 39.99151 | -82.87025 | 913 ft | 124 kts | 271° |
| 2026-05-06 03:50 | 39.99202 | -82.88030 | 820 ft | 96 kts | 274° |
| 2026-05-06 03:50 | 39.99244 | -82.88766 | 819 ft | 71 kts | 273° |
| 2026-05-06 03:50 | 39.99278 | -82.89294 | 816 ft | 41 kts | 281° |
| 2026-05-06 03:51 | 39.99350 | -82.89577 | 816 ft | 28 kts | 297° |
| 2026-05-06 03:51 | 39.99397 | -82.89673 | 813 ft | 0 kts | 305° |
| 2026-05-06 03:52 | 39.99410 | -82.89690 | 815 ft | 11 kts | 322° |
| 2026-05-06 03:52 | 39.99470 | -82.89639 | 816 ft | 22 kts | 92° |
| 2026-05-06 03:52 | 39.99459 | -82.89462 | 820 ft | 18 kts | 95° |
| 2026-05-06 03:52 | 39.99450 | -82.89314 | 820 ft | 15 kts | 92° |
| 2026-05-06 03:53 | 39.99467 | -82.89188 | 817 ft | 14 kts | 38° |
| 2026-05-06 03:53 | 39.99542 | -82.89178 | 819 ft | 9 kts | 2° |
| 2026-05-06 03:53 | 39.99575 | -82.89167 | 820 ft | 3 kts | 37° |
| 2026-05-06 03:53 | 39.99557 | -82.89064 | 818 ft | 15 kts | 107° |
| 2026-05-06 03:54 | 39.99551 | -82.88944 | 818 ft | 12 kts | 97° |
| 2026-05-06 03:54 | 39.99596 | -82.88891 | 813 ft | 8 kts | 17° |
| 2026-05-06 03:54 | 39.99611 | -82.88849 | 817 ft | 4 kts | 90° |
| 2026-05-06 03:54 | 39.99608 | -82.88813 | 814 ft | 6 kts | 102° |
| 2026-05-06 03:55 | 39.99605 | -82.88721 | 817 ft | 10 kts | 95° |
| 2026-05-06 03:55 | 39.99602 | -82.88682 | 817 ft | 1 kts | 96° |
| 2026-05-06 03:55 | 39.99599 | -82.88653 | 817 ft | 4 kts | 97° |
| 2026-05-06 03:55 | 39.99610 | -82.88632 | 818 ft | 6 kts | 22° |
| 2026-05-06 03:56 | 39.99634 | -82.88620 | 819 ft | 2 kts | 21° |
| 2026-05-06 03:56 | 39.99639 | -82.88618 | 819 ft | 0 kts | 21° |
| 2026-05-06 03:56 | 39.99655 | -82.88609 | 819 ft | 0 kts | 21° |
| 2026-05-06 03:56 | 39.99657 | -82.88608 | 819 ft | 0 kts | 23° |